Norris, Illinois
Current Conditions -  °F | °C
As of 5:54 PM on Saturday 22 Nov 2014 (Local Time) from KPIA Reporting Station
Overcast Overcast  
Wind Chill: 56°   Ceiling: 2100
Heat Index: 56°   Visibility: 10mi
Dew Point: 46°   Wind: 16mph
Humidity: 69%   Direction: 190°S
Pressure: 29.88"   Gusts: NA
Location:  40.63°N, 90.03°W
Report Text: KPIA 222354Z 19014KT 10SM BKN021 OVC038 13/08 A2988 RMK AO2 SLP121 T01330078 10150 20128 55001
Loading
Personal Weather Stations






























Interactive Weather Map New forecast layout! Learn more

10-Day Weather Forecast

Advertisements
Track Severe Weather on mobile